Time;durP1;ratioP1;P1;durP2;ratioP2;P2;SDS_P1;SDS_P2;PMS_P1;PMS_P2;Temp;Humidity;BMP_temperature;BMP_pressure;BME280_temperature;BME280_humidity;BME280_pressure;Samples;Min_cycle;Max_cycle;Signal;HPM_P1;HPM_P2
2023/04/23 00:01:07;;;;;;;1.80;1.23;;;13.30;99.90;;;;;;4966568;28;20035;-72
2023/04/23 00:03:36;;;;;;;2.83;1.08;;;13.20;99.90;;;;;;4949510;28;20031;-72
2023/04/23 00:06:06;;;;;;;1.85;1.15;;;13.20;99.90;;;;;;4970870;28;20038;-72
2023/04/23 00:08:33;;;;;;;4.50;1.20;;;13.10;99.90;;;;;;4954905;28;20086;-72
2023/04/23 00:11:00;;;;;;;4.55;1.38;;;13.00;99.90;;;;;;4967236;28;20037;-72
2023/04/23 00:13:27;;;;;;;1.90;1.10;;;13.00;99.90;;;;;;4960320;28;20023;-72
2023/04/23 00:15:53;;;;;;;1.45;1.02;;;12.90;99.90;;;;;;4969443;28;20650;-72
2023/04/23 00:18:19;;;;;;;2.95;1.30;;;12.90;99.90;;;;;;4959945;28;20491;-72
2023/04/23 00:20:45;;;;;;;2.85;1.48;;;12.80;99.90;;;;;;4968414;28;20027;-72
2023/04/23 00:23:11;;;;;;;3.63;1.27;;;12.80;99.90;;;;;;4960635;28;20046;-72
2023/04/23 00:25:36;;;;;;;3.95;1.38;;;12.80;99.90;;;;;;4967559;28;20035;-72
2023/04/23 00:28:02;;;;;;;3.08;1.30;;;12.80;99.90;;;;;;4963722;28;20037;-72
2023/04/23 00:30:28;;;;;;;1.42;1.05;;;12.70;99.90;;;;;;4965694;28;20061;-72
2023/04/23 00:32:54;;;;;;;2.13;1.17;;;12.80;99.90;;;;;;4964092;28;20109;-72
2023/04/23 00:35:20;;;;;;;2.40;1.13;;;12.70;99.90;;;;;;4964918;28;20039;-73
2023/04/23 00:37:45;;;;;;;2.92;1.85;;;12.70;99.90;;;;;;4963797;28;20041;-72
2023/04/23 00:40:12;;;;;;;3.20;1.42;;;12.70;99.90;;;;;;4965004;28;20034;-72
2023/04/23 00:42:39;;;;;;;3.10;1.20;;;12.60;99.90;;;;;;4962062;28;20027;-72
2023/04/23 00:45:07;;;;;;;3.65;1.20;;;12.70;99.90;;;;;;4964948;28;20031;-72
2023/04/23 00:47:34;;;;;;;2.00;1.33;;;12.60;99.90;;;;;;4963796;28;20026;-72
2023/04/23 00:50:00;;;;;;;3.28;1.63;;;12.60;99.90;;;;;;4947519;28;20031;-72
2023/04/23 00:52:28;;;;;;;2.60;1.23;;;12.70;99.90;;;;;;4963476;28;20419;-71
2023/04/23 00:54:54;;;;;;;2.30;1.25;;;12.70;99.90;;;;;;4965010;28;20026;-71
2023/04/23 00:57:23;;;;;;;2.85;1.42;;;12.70;99.90;;;;;;4965650;28;20026;-72
2023/04/23 00:59:49;;;;;;;4.47;1.85;;;12.70;99.90;;;;;;4964755;28;20019;-72
2023/04/23 01:02:16;;;;;;;5.13;1.85;;;12.70;99.90;;;;;;4965159;28;20086;-71
2023/04/23 01:04:43;;;;;;;4.85;1.88;;;12.70;99.90;;;;;;4956642;28;20027;-72
2023/04/23 01:07:11;;;;;;;2.90;1.45;;;12.70;99.90;;;;;;4945921;28;20491;-72
2023/04/23 01:09:37;;;;;;;5.32;1.50;;;12.70;99.90;;;;;;4951878;28;20494;-71
2023/04/23 01:12:05;;;;;;;3.97;1.92;;;12.70;99.90;;;;;;4949437;28;20079;-71
2023/04/23 01:14:32;;;;;;;8.57;1.70;;;12.70;99.90;;;;;;4946885;28;20034;-71
2023/04/23 01:16:58;;;;;;;2.53;1.60;;;12.70;99.90;;;;;;4948169;29;20035;-71
2023/04/23 01:19:24;;;;;;;2.55;1.10;;;12.70;99.90;;;;;;4952202;28;20039;-71
2023/04/23 01:21:50;;;;;;;5.18;1.95;;;12.70;99.90;;;;;;4950796;29;20042;-70
2023/04/23 01:24:16;;;;;;;2.70;1.45;;;12.70;99.90;;;;;;4960830;28;20578;-71
2023/04/23 01:26:42;;;;;;;2.17;1.25;;;12.70;99.90;;;;;;4965772;28;20035;-71
2023/04/23 01:29:09;;;;;;;5.32;1.80;;;12.80;99.90;;;;;;4958766;28;20089;-71
2023/04/23 01:31:35;;;;;;;2.60;1.40;;;12.80;99.90;;;;;;4967789;28;20037;-71
2023/04/23 01:34:01;;;;;;;2.13;1.42;;;12.80;99.90;;;;;;4956685;28;20376;-71
2023/04/23 01:36:28;;;;;;;6.40;2.20;;;12.80;99.90;;;;;;4970607;28;20041;-71
2023/04/23 01:38:54;;;;;;;2.17;1.60;;;12.80;99.90;;;;;;4955617;28;20027;-71
2023/04/23 01:41:20;;;;;;;3.90;1.92;;;12.70;99.90;;;;;;4961694;28;20027;-71
2023/04/23 01:43:46;;;;;;;3.95;1.65;;;12.80;99.90;;;;;;4955763;28;20170;-71
2023/04/23 01:46:11;;;;;;;4.25;1.88;;;12.80;99.90;;;;;;4970308;28;20360;-70
2023/04/23 01:48:38;;;;;;;6.38;1.65;;;12.80;99.90;;;;;;4956229;28;20037;-71
2023/04/23 01:51:04;;;;;;;3.22;1.55;;;12.80;99.90;;;;;;4969725;28;20051;-70
2023/04/23 01:53:30;;;;;;;2.85;1.45;;;12.80;99.90;;;;;;4962145;28;20030;-70
2023/04/23 01:55:56;;;;;;;5.30;1.80;;;12.80;99.90;;;;;;4968487;28;20039;-71
2023/04/23 01:58:23;;;;;;;4.45;1.90;;;12.70;99.90;;;;;;4959421;28;20047;-71
2023/04/23 02:00:49;;;;;;;3.83;1.80;;;12.70;99.90;;;;;;4951926;28;20031;-71
2023/04/23 02:03:15;;;;;;;2.78;1.63;;;12.70;99.90;;;;;;4954752;28;20035;-71
2023/04/23 02:05:43;;;;;;;3.33;1.73;;;12.70;99.90;;;;;;4966374;28;20038;-71
2023/04/23 02:08:10;;;;;;;2.63;1.80;;;12.70;99.90;;;;;;4959467;28;20387;-71
2023/04/23 02:10:35;;;;;;;3.70;1.40;;;12.70;99.90;;;;;;4951604;28;20475;-71
2023/04/23 02:13:02;;;;;;;2.63;1.58;;;12.70;99.90;;;;;;4955653;28;20031;-71
2023/04/23 02:15:28;;;;;;;2.92;1.55;;;12.70;99.90;;;;;;4953839;28;20034;-71
2023/04/23 02:17:55;;;;;;;2.45;1.63;;;12.70;99.90;;;;;;4953934;28;20034;-71
2023/04/23 02:20:21;;;;;;;3.42;1.38;;;12.70;99.90;;;;;;4962708;28;20038;-71
2023/04/23 02:22:48;;;;;;;1.80;1.48;;;12.70;99.90;;;;;;4964324;28;20035;-71
2023/04/23 02:25:16;;;;;;;1.95;1.30;;;12.70;99.90;;;;;;4963754;28;20402;-71
2023/04/23 02:27:42;;;;;;;6.50;1.90;;;12.70;99.90;;;;;;4960980;28;20078;-71
2023/04/23 02:30:10;;;;;;;2.78;1.65;;;12.70;99.90;;;;;;4963610;28;20034;-71
2023/04/23 02:32:36;;;;;;;3.60;1.88;;;12.70;99.90;;;;;;4960419;28;20041;-71
2023/04/23 02:35:05;;;;;;;3.97;1.52;;;12.70;99.90;;;;;;4962533;28;20058;-71
2023/04/23 02:37:32;;;;;;;2.15;1.10;;;12.70;99.90;;;;;;4966061;28;20494;-71
2023/04/23 02:39:58;;;;;;;2.25;1.50;;;12.70;99.90;;;;;;4963497;28;20117;-71
2023/04/23 02:42:26;;;;;;;2.65;1.55;;;12.60;99.90;;;;;;4962068;28;20543;-70
2023/04/23 02:44:52;;;;;;;2.67;1.42;;;12.60;99.90;;;;;;4963706;28;20034;-71
2023/04/23 02:47:18;;;;;;;3.28;1.50;;;12.50;99.90;;;;;;4962543;28;20091;-70
2023/04/23 02:49:43;;;;;;;4.05;2.15;;;12.50;99.90;;;;;;4962065;28;20054;-71
2023/04/23 02:52:10;;;;;;;2.13;1.42;;;12.50;99.90;;;;;;4962382;28;20062;-71
2023/04/23 02:54:36;;;;;;;8.13;1.83;;;12.50;99.90;;;;;;4963242;28;20027;-71
2023/04/23 02:57:03;;;;;;;2.05;1.40;;;12.40;99.90;;;;;;4962297;28;20087;-71
2023/04/23 02:59:29;;;;;;;2.28;1.27;;;12.40;99.90;;;;;;4964978;28;20031;-71
2023/04/23 03:01:55;;;;;;;2.67;1.85;;;12.40;99.90;;;;;;4967264;28;20043;-71
2023/04/23 03:04:21;;;;;;;3.38;1.65;;;12.40;99.90;;;;;;4964659;28;20050;-71
2023/04/23 03:06:47;;;;;;;4.03;2.13;;;12.40;99.90;;;;;;4968365;28;20074;-71
2023/04/23 03:09:13;;;;;;;3.85;2.30;;;12.40;99.90;;;;;;4963195;28;20535;-71
2023/04/23 03:11:38;;;;;;;2.90;1.42;;;12.40;99.90;;;;;;4969723;28;20031;-71
2023/04/23 03:14:04;;;;;;;4.43;2.42;;;12.40;99.90;;;;;;4961575;28;20034;-71
2023/04/23 03:16:30;;;;;;;6.28;2.63;;;12.40;99.90;;;;;;4956069;28;20038;-71
2023/04/23 03:18:57;;;;;;;3.97;2.38;;;12.40;99.90;;;;;;4960007;28;20113;-71
2023/04/23 03:21:23;;;;;;;2.88;1.67;;;12.40;99.90;;;;;;4957281;28;20037;-71
2023/04/23 03:23:50;;;;;;;6.30;2.15;;;12.40;99.90;;;;;;4958810;28;20146;-71
2023/04/23 03:26:16;;;;;;;6.75;1.90;;;12.40;99.90;;;;;;4974042;28;20122;-71
2023/04/23 03:28:41;;;;;;;2.85;1.75;;;12.50;99.90;;;;;;4959481;28;20038;-71
2023/04/23 03:31:07;;;;;;;2.58;1.35;;;12.40;99.90;;;;;;4954378;28;20027;-70
2023/04/23 03:36:01;;;;;;;3.45;2.20;;;12.30;99.90;;;;;;4970612;28;20058;-78
2023/04/23 03:38:27;;;;;;;2.58;1.50;;;12.30;99.90;;;;;;4974068;28;20039;-79
2023/04/23 03:40:53;;;;;;;9.15;2.05;;;12.30;99.90;;;;;;4970374;28;20041;-79
2023/04/23 03:43:19;;;;;;;2.47;1.63;;;12.20;99.90;;;;;;4972481;28;20439;-78
2023/04/23 03:45:45;;;;;;;10.60;1.75;;;12.20;99.90;;;;;;4970554;28;20037;-79
2023/04/23 03:48:10;;;;;;;3.88;1.60;;;12.20;99.90;;;;;;4974075;28;20038;-79
2023/04/23 03:50:39;;;;;;;3.63;1.73;;;12.20;99.90;;;;;;4972194;28;20118;-79
2023/04/23 03:53:06;;;;;;;3.03;1.95;;;12.10;99.90;;;;;;4973994;28;20027;-79
2023/04/23 03:55:32;;;;;;;2.60;1.40;;;12.10;99.90;;;;;;4970451;28;20030;-79
2023/04/23 03:58:00;;;;;;;2.63;1.63;;;12.00;99.90;;;;;;4973940;28;20403;-79
2023/04/23 04:00:26;;;;;;;4.03;2.17;;;12.00;99.90;;;;;;4970734;28;20038;-79
2023/04/23 04:02:52;;;;;;;3.92;2.13;;;12.00;99.90;;;;;;4984325;28;20038;-79
2023/04/23 04:05:17;;;;;;;3.97;1.83;;;12.10;99.90;;;;;;4970005;28;20042;-79
2023/04/23 04:07:43;;;;;;;4.32;1.98;;;12.10;99.90;;;;;;4973731;28;20030;-79
2023/04/23 04:10:09;;;;;;;2.30;1.52;;;12.00;99.90;;;;;;4969762;28;20391;-79
2023/04/23 04:12:35;;;;;;;2.15;1.15;;;12.00;99.90;;;;;;4973088;28;20023;-79
2023/04/23 04:15:02;;;;;;;2.35;1.45;;;12.00;99.90;;;;;;4970439;28;20038;-79
2023/04/23 04:17:28;;;;;;;1.63;1.38;;;12.00;99.90;;;;;;4981213;28;20026;-79
2023/04/23 04:19:54;;;;;;;2.38;1.13;;;12.00;99.90;;;;;;4970237;28;20035;-79
2023/04/23 04:22:20;;;;;;;2.42;1.33;;;12.00;99.90;;;;;;4980068;28;20045;-79
2023/04/23 04:24:46;;;;;;;1.63;1.02;;;11.90;99.90;;;;;;4968292;28;20035;-79
2023/04/23 04:27:13;;;;;;;1.60;1.00;;;12.00;99.90;;;;;;4973307;28;20023;-79
2023/04/23 04:29:39;;;;;;;2.05;1.17;;;12.00;99.90;;;;;;4968667;28;20046;-79
2023/04/23 04:32:08;;;;;;;1.00;0.80;;;11.90;99.90;;;;;;4973122;28;20023;-79
2023/04/23 04:34:35;;;;;;;2.45;1.10;;;12.00;99.90;;;;;;4968586;28;20019;-78
2023/04/23 04:37:00;;;;;;;2.30;1.33;;;11.90;99.90;;;;;;4973325;28;20061;-79
2023/04/23 04:39:26;;;;;;;2.13;1.10;;;12.00;99.90;;;;;;4972784;28;20500;-78
2023/04/23 04:41:53;;;;;;;2.80;1.25;;;12.00;99.90;;;;;;4973321;28;20034;-79
2023/04/23 04:44:18;;;;;;;1.90;1.00;;;12.10;99.90;;;;;;4969285;28;20447;-78
2023/04/23 04:46:44;;;;;;;3.05;1.23;;;12.00;99.90;;;;;;4972942;28;20085;-78
2023/04/23 04:49:11;;;;;;;1.73;1.15;;;12.00;99.90;;;;;;4968260;28;20031;-78
2023/04/23 04:51:38;;;;;;;1.60;1.38;;;12.00;99.90;;;;;;4979940;28;20549;-79
2023/04/23 04:54:06;;;;;;;2.20;1.27;;;11.90;99.90;;;;;;4969024;28;20035;-79
2023/04/23 04:56:33;;;;;;;2.85;1.40;;;12.00;99.90;;;;;;4979656;28;20117;-78
2023/04/23 04:58:59;;;;;;;1.58;0.85;;;12.00;99.90;;;;;;4969484;28;20111;-79
2023/04/23 05:01:27;;;;;;;2.30;1.25;;;12.00;99.90;;;;;;4972694;28;20038;-79
2023/04/23 05:03:57;;;;;;;2.08;1.45;;;11.90;99.90;;;;;;4969681;28;20034;-77
2023/04/23 05:06:22;;;;;;;3.40;1.08;;;11.90;99.90;;;;;;4971367;28;20097;-78
2023/04/23 05:08:48;;;;;;;1.88;1.15;;;11.90;99.90;;;;;;4969422;28;20042;-78
2023/04/23 05:11:18;;;;;;;2.20;0.75;;;11.90;99.90;;;;;;4969991;28;20081;-78
2023/04/23 05:13:46;;;;;;;3.43;1.50;;;11.90;99.90;;;;;;4970759;28;20026;-77
2023/04/23 05:16:12;;;;;;;1.35;1.02;;;12.00;99.90;;;;;;4970698;28;20027;-78
2023/04/23 05:18:40;;;;;;;1.23;0.90;;;12.00;99.90;;;;;;4970673;28;20039;-78
2023/04/23 05:21:06;;;;;;;2.60;1.35;;;12.00;99.90;;;;;;4955170;28;20038;-79
2023/04/23 05:23:32;;;;;;;2.83;1.20;;;11.90;99.90;;;;;;4971343;28;20038;-78
2023/04/23 05:25:58;;;;;;;9.95;1.48;;;11.90;99.90;;;;;;4971866;28;20043;-78
2023/04/23 05:28:24;;;;;;;4.38;2.00;;;11.90;99.90;;;;;;4972474;28;20081;-78
2023/04/23 05:30:51;;;;;;;3.58;1.88;;;11.90;99.90;;;;;;4975406;28;20046;-78
2023/04/23 05:33:17;;;;;;;4.03;1.73;;;11.80;99.90;;;;;;4971838;28;20106;-78
2023/04/23 05:35:43;;;;;;;3.13;1.52;;;11.80;99.90;;;;;;4974835;28;20514;-79
2023/04/23 05:38:09;;;;;;;3.65;1.40;;;11.90;99.90;;;;;;4972193;28;20031;-78
2023/04/23 05:40:35;;;;;;;3.63;1.83;;;11.80;99.90;;;;;;4975072;28;20043;-77
2023/04/23 05:43:01;;;;;;;2.67;1.55;;;11.90;99.90;;;;;;4983780;28;20409;-78
2023/04/23 05:45:27;;;;;;;2.28;1.48;;;12.00;99.90;;;;;;4967013;28;20035;-78
2023/04/23 05:47:52;;;;;;;2.90;1.45;;;12.00;99.90;;;;;;4983013;28;20026;-78
2023/04/23 05:50:20;;;;;;;4.85;1.70;;;12.10;99.90;;;;;;4968807;28;20076;-78
2023/04/23 05:52:46;;;;;;;3.95;1.88;;;12.10;99.90;;;;;;4971883;28;20103;-78
2023/04/23 05:55:14;;;;;;;2.47;1.23;;;12.10;99.90;;;;;;4973620;28;20034;-78
2023/04/23 05:57:40;;;;;;;3.95;2.45;;;12.10;99.90;;;;;;4980586;28;20037;-78
2023/04/23 06:00:10;;;;;;;2.28;1.33;;;12.10;99.90;;;;;;4968535;28;20125;-77
2023/04/23 06:02:37;;;;;;;3.97;1.77;;;12.20;99.90;;;;;;4971712;28;20498;-78
2023/04/23 06:05:05;;;;;;;4.63;1.75;;;12.30;99.90;;;;;;4966559;28;20031;-78
2023/04/23 06:07:31;;;;;;;2.88;1.60;;;12.30;99.90;;;;;;4971984;28;20027;-77
2023/04/23 06:09:56;;;;;;;3.22;1.48;;;12.30;99.90;;;;;;4971446;28;20082;-78
2023/04/23 06:12:22;;;;;;;3.03;1.58;;;12.30;99.90;;;;;;4970442;28;20163;-77
2023/04/23 06:14:48;;;;;;;3.55;2.25;;;12.30;99.90;;;;;;4968183;28;20502;-78
2023/04/23 06:17:14;;;;;;;2.83;1.83;;;12.30;99.90;;;;;;4971721;28;20030;-77
2023/04/23 06:19:40;;;;;;;3.85;2.13;;;12.20;99.90;;;;;;4967837;28;20031;-78
2023/04/23 06:22:06;;;;;;;2.45;1.52;;;12.30;99.90;;;;;;4978517;28;20042;-78
2023/04/23 06:24:32;;;;;;;4.50;2.03;;;12.30;99.90;;;;;;4967357;28;20110;-78
2023/04/23 06:26:58;;;;;;;3.55;1.98;;;12.30;99.90;;;;;;4971533;28;20453;-77
2023/04/23 06:29:24;;;;;;;3.80;2.25;;;12.30;99.90;;;;;;4967000;28;20038;-77
2023/04/23 06:31:49;;;;;;;3.60;1.65;;;12.20;99.90;;;;;;4971465;28;20031;-78
2023/04/23 06:34:15;;;;;;;4.20;2.30;;;12.20;99.90;;;;;;4968794;28;20490;-78
2023/04/23 06:36:42;;;;;;;4.63;2.25;;;12.10;99.90;;;;;;4975623;28;20367;-78
2023/04/23 06:39:08;;;;;;;3.58;2.25;;;12.00;99.90;;;;;;4971614;28;20505;-78
2023/04/23 06:41:34;;;;;;;5.22;2.47;;;12.10;99.90;;;;;;4982293;28;20038;-78
2023/04/23 06:44:00;;;;;;;3.90;2.30;;;12.10;99.90;;;;;;4954091;28;20039;-77
2023/04/23 06:46:25;;;;;;;4.18;2.50;;;12.10;99.90;;;;;;4975304;28;20034;-77
2023/04/23 06:48:51;;;;;;;3.67;1.95;;;12.20;99.90;;;;;;4972885;28;20031;-78
2023/04/23 06:51:17;;;;;;;5.38;2.20;;;12.30;99.90;;;;;;4972888;28;20036;-77
2023/04/23 06:53:43;;;;;;;5.55;2.40;;;12.40;99.90;;;;;;4973515;28;20085;-77
2023/04/23 06:56:08;;;;;;;4.25;2.50;;;12.60;99.90;;;;;;4973206;28;20038;-77
2023/04/23 06:58:34;;;;;;;4.60;2.00;;;12.70;99.90;;;;;;4974149;28;20090;-77
2023/04/23 07:01:03;;;;;;;3.75;2.20;;;12.70;99.90;;;;;;4971794;28;20089;-77
2023/04/23 07:03:30;;;;;;;7.25;2.40;;;12.70;99.90;;;;;;4974751;28;20461;-77
2023/04/23 07:05:56;;;;;;;10.75;2.63;;;12.80;99.90;;;;;;4970011;28;20066;-78
2023/04/23 07:08:22;;;;;;;4.45;2.42;;;12.90;99.90;;;;;;4974887;28;20062;-77
2023/04/23 07:10:48;;;;;;;4.88;2.42;;;12.90;99.90;;;;;;4978014;28;20039;-77
2023/04/23 07:13:15;;;;;;;3.13;2.00;;;13.00;99.90;;;;;;4988213;28;20101;-77
2023/04/23 07:15:41;;;;;;;3.08;1.92;;;13.10;99.90;;;;;;4969661;28;20056;-78
2023/04/23 07:18:08;;;;;;;3.60;2.53;;;13.20;99.90;;;;;;4987626;28;20031;-78
2023/04/23 07:20:34;;;;;;;4.38;1.98;;;13.40;99.90;;;;;;4971032;28;20059;-77
2023/04/23 07:23:00;;;;;;;6.32;1.73;;;13.30;99.90;;;;;;4986056;28;20614;-78
2023/04/23 07:25:26;;;;;;;2.67;1.70;;;13.40;99.90;;;;;;4969701;28;20126;-78
2023/04/23 07:27:53;;;;;;;2.83;1.70;;;13.60;99.90;;;;;;4974639;28;20173;-78
2023/04/23 07:30:20;;;;;;;2.90;1.52;;;13.60;99.90;;;;;;4971059;28;20515;-78
2023/04/23 07:32:46;;;;;;;2.33;1.40;;;13.60;99.90;;;;;;4983902;28;20035;-79
2023/04/23 07:35:11;;;;;;;3.17;1.40;;;13.80;99.90;;;;;;4969561;28;20159;-78
2023/04/23 07:37:37;;;;;;;3.25;1.88;;;13.90;99.90;;;;;;4974711;28;20418;-79
2023/04/23 07:40:06;;;;;;;3.10;1.83;;;14.10;99.90;;;;;;4970988;28;20502;-78
2023/04/23 07:42:32;;;;;;;4.78;2.03;;;14.20;99.90;;;;;;4974130;28;20560;-78
2023/04/23 07:44:58;;;;;;;3.42;1.20;;;14.30;99.90;;;;;;4969651;28;20039;-78
2023/04/23 07:47:24;;;;;;;1.52;1.15;;;14.40;99.90;;;;;;4980619;28;20038;-78
2023/04/23 07:49:50;;;;;;;1.85;1.20;;;14.60;99.90;;;;;;4970401;28;20039;-79
2023/04/23 07:52:16;;;;;;;3.13;1.48;;;14.60;99.90;;;;;;4980980;28;20037;-78
2023/04/23 07:54:43;;;;;;;2.47;1.35;;;14.80;99.90;;;;;;4970525;28;20048;-78
2023/04/23 07:57:10;;;;;;;3.67;1.40;;;14.50;99.90;;;;;;4980697;28;20033;-79
2023/04/23 07:59:38;;;;;;;3.25;1.70;;;14.60;99.90;;;;;;4969364;28;20030;-79
2023/04/23 08:02:05;;;;;;;2.78;1.35;;;14.60;99.90;;;;;;4974092;28;20035;-78
2023/04/23 08:04:31;;;;;;;10.68;4.15;;;14.60;99.90;;;;;;4969403;28;20038;-79
2023/04/23 08:06:57;;;;;;;2.75;1.85;;;14.80;99.90;;;;;;4973885;28;20035;-80
2023/04/23 08:09:23;;;;;;;2.05;1.08;;;14.80;99.90;;;;;;4968945;28;20027;-79
2023/04/23 08:11:49;;;;;;;4.15;1.60;;;14.90;99.90;;;;;;4973709;28;20035;-79
2023/04/23 08:14:16;;;;;;;2.50;1.40;;;14.60;99.90;;;;;;4969972;28;20031;-80
2023/04/23 08:16:42;;;;;;;3.33;1.45;;;14.80;99.90;;;;;;4972215;28;20027;-80
2023/04/23 08:19:08;;;;;;;2.15;1.63;;;14.90;99.90;;;;;;4970209;28;20491;-81
2023/04/23 08:21:33;;;;;;;2.50;1.58;;;15.10;99.90;;;;;;4980444;28;20030;-82
2023/04/23 08:24:01;;;;;;;4.07;1.48;;;15.10;99.90;;;;;;4969410;28;20032;-82
2023/04/23 08:26:27;;;;;;;2.85;1.58;;;15.10;99.90;;;;;;4980093;28;20026;-84
2023/04/23 08:28:53;;;;;;;2.20;1.55;;;15.10;99.90;;;;;;4973113;28;20030;-84
2023/04/23 08:31:19;;;;;;;2.35;1.40;;;15.30;99.90;;;;;;4973714;28;20039;-84
2023/04/23 08:33:45;;;;;;;3.30;1.52;;;15.50;99.90;;;;;;4972569;28;20474;-84
2023/04/23 08:36:10;;;;;;;3.08;1.85;;;15.50;99.90;;;;;;4973648;28;20042;-85
2023/04/23 08:38:36;;;;;;;3.95;1.35;;;15.60;99.90;;;;;;4973256;28;20047;-85
2023/04/23 08:41:07;;;;;;;2.25;1.00;;;15.70;99.90;;;;;;4969686;28;20102;-85
2023/04/23 08:44:17;;;;;;;2.28;1.45;;;15.80;99.90;;;;;;4972469;28;20555;-85
2023/04/23 08:46:45;;;;;;;3.17;1.40;;;15.80;99.90;;;;;;4967998;28;20119;-85
2023/04/23 08:49:17;;;;;;;3.35;1.20;;;16.10;99.90;;;;;;4973733;28;20043;-85
2023/04/23 08:51:51;;;;;;;2.25;1.30;;;16.20;99.90;;;;;;4983070;28;20027;-84
2023/04/23 08:54:25;;;;;;;5.40;1.40;;;16.30;99.90;;;;;;4971722;28;20518;-86
2023/04/23 08:56:57;;;;;;;1.80;1.10;;;15.90;99.90;;;;;;4974007;28;20130;-85
2023/04/23 08:59:29;;;;;;;2.63;1.45;;;15.60;99.90;;;;;;4970114;28;20082;-84
2023/04/23 09:01:56;;;;;;;1.90;1.17;;;15.90;99.90;;;;;;4975623;28;20387;-83
2023/04/23 09:04:23;;;;;;;2.75;1.42;;;16.10;99.90;;;;;;4968115;28;20502;-83
2023/04/23 09:06:49;;;;;;;1.95;1.13;;;16.30;99.90;;;;;;4980432;28;20140;-83
2023/04/23 09:09:19;;;;;;;1.48;0.93;;;16.40;99.90;;;;;;4970003;28;20468;-83
2023/04/23 09:11:44;;;;;;;2.28;1.38;;;16.50;99.90;;;;;;4973080;28;20078;-83
2023/04/23 09:14:12;;;;;;;1.40;0.95;;;16.40;99.90;;;;;;4967689;28;20035;-82
2023/04/23 09:16:39;;;;;;;3.30;1.50;;;16.40;99.90;;;;;;4972744;28;20086;-82
2023/04/23 09:19:09;;;;;;;1.73;1.10;;;16.40;99.90;;;;;;4968048;28;20479;-82
2023/04/23 09:21:37;;;;;;;2.00;0.85;;;16.40;99.90;;;;;;4963561;28;20037;-82
2023/04/23 09:24:13;;;;;;;1.85;0.88;;;16.60;99.90;;;;;;4967483;28;20038;-82
2023/04/23 09:26:49;;;;;;;3.08;1.30;;;17.00;99.90;;;;;;4979292;28;20019;-82
2023/04/23 09:29:22;;;;;;;3.35;1.10;;;16.90;99.90;;;;;;4967648;28;20698;-81
2023/04/23 09:32:09;;;;;;;3.00;1.05;;;17.20;99.90;;;;;;4978591;28;20042;-82
2023/04/23 09:34:38;;;;;;;1.40;0.82;;;17.40;99.90;;;;;;4979420;23;20150;-70
2023/04/23 09:37:10;;;;;;;4.85;1.45;;;17.10;99.90;;;;;;4966789;28;20447;-70
2023/04/23 09:39:36;;;;;;;1.73;1.25;;;17.00;99.90;;;;;;4971340;28;20050;-70
2023/04/23 09:42:07;;;;;;;2.10;1.30;;;17.20;99.90;;;;;;4971034;28;20262;-70
2023/04/23 09:44:34;;;;;;;2.10;0.93;;;17.20;99.90;;;;;;4970891;28;20034;-71
2023/04/23 09:47:09;;;;;;;2.63;1.13;;;17.20;99.90;;;;;;4954839;28;20041;-70
2023/04/23 09:49:48;;;;;;;2.65;1.13;;;17.10;99.90;;;;;;4971286;28;20031;-70
2023/04/23 09:52:14;;;;;;;1.58;0.90;;;17.30;99.90;;;;;;4971964;28;20023;-71
2023/04/23 09:54:42;;;;;;;2.65;1.10;;;17.10;99.90;;;;;;4971294;28;20089;-71
2023/04/23 09:57:07;;;;;;;2.20;1.00;;;17.20;99.90;;;;;;4970832;28;20035;-70
2023/04/23 09:59:37;;;;;;;2.25;0.85;;;17.40;99.90;;;;;;4969435;28;20483;-71
2023/04/23 10:02:06;;;;;;;1.65;1.13;;;17.30;99.90;;;;;;4970757;28;20038;-71
2023/04/23 10:04:33;;;;;;;1.92;1.30;;;17.20;99.90;;;;;;4969395;28;20070;-72
2023/04/23 10:07:02;;;;;;;3.13;1.70;;;17.40;99.90;;;;;;4970585;28;20031;-72
2023/04/23 10:09:29;;;;;;;3.75;1.88;;;17.70;99.90;;;;;;4953010;28;20033;-71
2023/04/23 10:11:57;;;;;;;1.98;1.23;;;17.90;99.90;;;;;;4969940;28;20069;-71
2023/04/23 10:14:25;;;;;;;2.25;1.40;;;17.50;99.90;;;;;;4959281;28;20511;-71
2023/04/23 10:17:03;;;;;;;3.42;1.20;;;17.70;99.90;;;;;;4969317;28;20110;-70
2023/04/23 10:19:31;;;;;;;1.38;0.90;;;18.00;99.90;;;;;;4970810;28;20027;-70
2023/04/23 10:22:04;;;;;;;2.55;1.30;;;17.90;99.90;;;;;;4969575;28;20498;-70
2023/04/23 10:24:33;;;;;;;2.10;1.20;;;18.00;99.90;;;;;;4970326;28;20403;-71
2023/04/23 10:27:03;;;;;;;4.82;1.27;;;18.20;99.90;;;;;;4968565;28;20027;-71
2023/04/23 10:29:37;;;;;;;3.40;1.20;;;17.90;99.90;;;;;;4971892;28;20030;-71
2023/04/23 10:32:05;;;;;;;1.80;1.00;;;18.20;99.90;;;;;;4969527;28;20060;-71
2023/04/23 10:34:32;;;;;;;4.07;1.10;;;18.20;99.90;;;;;;4970023;28;20105;-71
2023/04/23 10:37:01;;;;;;;1.98;0.80;;;18.20;99.90;;;;;;4969656;28;20462;-71
2023/04/23 10:39:32;;;;;;;2.50;1.00;;;18.30;99.90;;;;;;4964359;28;20045;-71
2023/04/23 10:42:00;;;;;;;6.05;1.10;;;18.30;99.90;;;;;;4964704;28;20057;-71
2023/04/23 10:44:55;;;;;;;1.00;0.63;;;18.10;99.90;;;;;;4966720;28;20664;-71
2023/04/23 10:47:21;;;;;;;2.08;0.77;;;18.30;99.90;;;;;;4953669;28;20077;-71
2023/04/23 10:49:48;;;;;;;1.85;1.00;;;18.40;99.90;;;;;;4971319;28;20059;-71
2023/04/23 10:52:17;;;;;;;2.58;1.20;;;18.20;99.90;;;;;;4967969;28;20034;-71
2023/04/23 10:54:49;;;;;;;1.75;1.17;;;18.30;99.90;;;;;;4971182;28;20070;-71
2023/04/23 10:57:15;;;;;;;3.13;0.95;;;18.40;99.90;;;;;;4969154;28;20050;-71
2023/04/23 10:59:52;;;;;;;1.65;1.00;;;18.60;99.90;;;;;;4965677;28;20039;-72
2023/04/23 11:02:21;;;;;;;3.03;1.10;;;18.40;99.90;;;;;;4970644;28;20061;-71
2023/04/23 11:04:56;;;;;;;1.67;0.80;;;18.50;99.90;;;;;;4966823;28;20109;-71
2023/04/23 11:07:30;;;;;;;0.98;0.68;;;18.70;99.90;;;;;;4971053;28;20038;-71
2023/04/23 11:10:00;;;;;;;5.15;1.13;;;18.80;99.90;;;;;;4966846;28;20034;-71
2023/04/23 11:12:25;;;;;;;0.85;0.77;;;18.80;99.90;;;;;;4963501;28;20035;-70
2023/04/23 11:14:56;;;;;;;1.88;0.93;;;19.10;99.90;;;;;;4964945;28;20035;-70
2023/04/23 11:17:46;;;;;;;2.17;0.90;;;19.40;99.30;;;;;;4969874;28;20034;-70
2023/04/23 11:20:17;;;;;;;6.10;1.08;;;19.60;99.80;;;;;;4967269;28;20049;-71
2023/04/23 11:22:45;;;;;;;1.75;0.95;;;19.70;97.70;;;;;;4974288;28;20096;-73
2023/04/23 11:25:24;;;;;;;1.48;0.88;;;19.20;97.90;;;;;;4972307;28;20105;-72
2023/04/23 11:27:54;;;;;;;0.63;0.50;;;18.60;98.70;;;;;;4973820;28;20035;-72
2023/04/23 11:30:28;;;;;;;1.40;0.60;;;18.90;98.70;;;;;;4970008;28;20545;-72
2023/04/23 11:32:57;;;;;;;1.00;0.80;;;18.90;97.60;;;;;;4973129;28;20455;-72
2023/04/23 11:35:29;;;;;;;1.50;0.80;;;18.80;95.50;;;;;;4965301;28;20034;-72
2023/04/23 11:37:55;;;;;;;2.13;0.93;;;19.40;96.40;;;;;;4970666;28;20033;-72
2023/04/23 11:40:23;;;;;;;2.00;0.93;;;19.70;95.50;;;;;;4968505;28;20475;-72
2023/04/23 11:42:52;;;;;;;2.25;0.70;;;19.70;94.50;;;;;;4972730;28;20401;-70
2023/04/23 11:45:22;;;;;;;5.15;1.05;;;19.90;95.10;;;;;;4968228;28;21393;-71
2023/04/23 11:47:56;;;;;;;2.00;1.10;;;20.40;93.90;;;;;;4974551;28;20113;-71
2023/04/23 11:50:29;;;;;;;0.88;0.60;;;20.50;93.00;;;;;;4969638;28;20495;-71
2023/04/23 11:52:56;;;;;;;1.48;0.90;;;20.50;93.40;;;;;;4974025;28;20038;-71
2023/04/23 11:55:22;;;;;;;1.05;0.70;;;19.90;94.20;;;;;;4969804;28;20023;-71
2023/04/23 11:57:50;;;;;;;1.48;0.85;;;19.80;93.70;;;;;;4974205;28;20035;-71
2023/04/23 12:00:20;;;;;;;1.05;0.68;;;19.80;94.20;;;;;;4969532;28;20038;-71
2023/04/23 12:03:05;;;;;;;1.85;0.80;;;20.40;93.20;;;;;;4973973;28;20039;-71
2023/04/23 12:05:41;;;;;;;1.27;0.63;;;20.60;95.10;;;;;;4969090;28;20490;-71
2023/04/23 12:08:20;;;;;;;0.73;0.50;;;20.90;92.40;;;;;;4972653;28;20035;-71
2023/04/23 12:10:52;;;;;;;1.73;0.88;;;20.60;90.40;;;;;;4968959;28;20693;-71
2023/04/23 12:13:22;;;;;;;1.33;0.55;;;20.20;92.30;;;;;;4973638;28;20126;-71
2023/04/23 12:15:59;;;;;;;1.92;0.75;;;19.90;89.20;;;;;;4967644;28;20035;-71
2023/04/23 12:18:41;;;;;;;0.90;0.50;;;19.60;91.30;;;;;;4954786;28;20070;-71
2023/04/23 12:21:11;;;;;;;2.10;0.80;;;19.90;91.60;;;;;;4971409;28;20110;-70
2023/04/23 12:23:43;;;;;;;1.15;0.90;;;20.40;89.40;;;;;;4971509;28;20027;-71
2023/04/23 12:26:14;;;;;;;20.15;1.33;;;20.30;88.60;;;;;;4965707;28;20644;-71
2023/04/23 12:28:50;;;;;;;0.75;0.50;;;20.70;86.50;;;;;;4968353;28;20035;-71
2023/04/23 12:31:27;;;;;;;0.38;0.30;;;20.90;90.70;;;;;;4965093;28;20446;-72
2023/04/23 12:34:16;;;;;;;0.90;0.65;;;21.60;84.50;;;;;;4962232;28;20035;-70
2023/04/23 12:36:53;;;;;;;0.40;0.40;;;21.60;80.40;;;;;;4967931;28;20126;-72
2023/04/23 12:39:22;;;;;;;1.70;0.70;;;21.50;79.80;;;;;;4965725;28;20038;-71
2023/04/23 12:42:01;;;;;;;1.55;0.60;;;22.00;76.90;;;;;;4966612;28;20035;-71
2023/04/23 12:44:28;;;;;;;1.92;0.35;;;22.40;78.10;;;;;;4969979;28;20037;-72
2023/04/23 12:46:59;;;;;;;1.02;0.30;;;22.60;75.20;;;;;;4972802;28;20037;-71
2023/04/23 12:49:25;;;;;;;;;;;21.90;76.30;;;;;;4971801;28;20037;-72
2023/04/23 12:52:01;;;;;;;0.60;0.40;;;22.10;77.30;;;;;;4973229;28;20267;-72
2023/04/23 12:54:30;;;;;;;0.90;0.47;;;22.10;78.10;;;;;;4969195;28;20026;-72